METAR Data
IDs: Format: Raw Decoded Include TAF

Data at: 2113 UTC 13 Nov 2019

METAR for:KSPB (Scappoose Ind Airpar, OR, US)
Text:KSPB 132104Z AUTO 00000KT 10SM OVC010 12/09 A3004 RMK AO2 T01170089
Temperature: 11.7°C ( 53°F)
Dewpoint: 8.9°C ( 48°F) [RH = 83%]
Pressure (altimeter):30.04 inches Hg (1017.4 mb)
Winds:calm
Visibility:10 or more sm (16+ km)
Ceiling:1000 feet AGL
Clouds: overcast cloud deck at 1000 feet AGL
QC Flag:automated observation with no human augmentation